TimeEDT,TemperatureF,Dew PointF,Humidity,Sea Level PressureIn,VisibilityMPH,Wind Direction,Wind SpeedMPH,Gust SpeedMPH,PrecipitationIn,Events,Conditions,WindDirDegrees,DateUTC
12:56 AM,41.0,36.0,82,30.39,10.0,Calm,Calm,-,N/A,,Clear,0,2013-09-17 04:56:00
1:56 AM,37.9,36.0,93,30.40,10.0,Calm,Calm,-,N/A,,Clear,0,2013-09-17 05:56:00
2:09 AM,37.4,33.8,87,30.37,1.8,Calm,Calm,-,N/A,,Clear,0,2013-09-17 06:09:00
2:21 AM,35.6,33.8,93,30.37,0.2,Calm,Calm,-,N/A,Fog,Fog,0,2013-09-17 06:21:00
2:56 AM,34.0,32.0,92,30.42,0.2,Calm,Calm,-,N/A,Fog,Fog,0,2013-09-17 06:56:00
3:34 AM,35.6,32.0,87,30.38,1.5,Calm,Calm,-,N/A,,Scattered Clouds,0,2013-09-17 07:34:00
3:36 AM,35.6,32.0,87,30.38,4.0,Calm,Calm,-,N/A,,Scattered Clouds,0,2013-09-17 07:36:00
3:48 AM,35.6,33.8,93,30.38,1.8,Calm,Calm,-,N/A,,Partly Cloudy,0,2013-09-17 07:48:00
3:56 AM,35.1,33.1,92,30.43,0.5,Calm,Calm,-,N/A,Fog,Fog,0,2013-09-17 07:56:00
4:06 AM,35.6,33.8,93,30.39,1.2,Calm,Calm,-,N/A,,Partly Cloudy,0,2013-09-17 08:06:00
4:09 AM,35.6,33.8,93,30.39,3.0,Calm,Calm,-,N/A,,Partly Cloudy,0,2013-09-17 08:09:00
4:56 AM,37.0,35.1,93,30.44,10.0,Calm,Calm,-,N/A,,Clear,0,2013-09-17 08:56:00
5:07 AM,35.6,33.8,93,30.40,1.8,Calm,Calm,-,N/A,,Clear,0,2013-09-17 09:07:00
5:14 AM,35.6,33.8,93,30.40,0.8,Calm,Calm,-,N/A,,Mist,0,2013-09-17 09:14:00
5:36 AM,33.8,32.0,93,30.40,1.5,ENE,3.5,-,N/A,,Scattered Clouds,70,2013-09-17 09:36:00
5:43 AM,33.8,32.0,93,30.40,4.0,Calm,Calm,-,N/A,,Scattered Clouds,0,2013-09-17 09:43:00
5:49 AM,33.8,32.0,93,30.40,1.8,Calm,Calm,-,N/A,,Partly Cloudy,0,2013-09-17 09:49:00
5:53 AM,32.0,30.2,93,30.40,0.8,Calm,Calm,-,N/A,,Mist,0,2013-09-17 09:53:00
5:56 AM,32.0,30.9,96,30.45,0.5,Calm,Calm,-,N/A,Fog,Fog,0,2013-09-17 09:56:00
6:19 AM,32.0,30.2,93,30.41,1.2,Calm,Calm,-,N/A,,Scattered Clouds,0,2013-09-17 10:19:00
6:30 AM,33.8,30.2,87,30.42,1.8,Calm,Calm,-,N/A,,Mostly Cloudy,0,2013-09-17 10:30:00
6:44 AM,32.0,30.2,93,30.42,0.2,Calm,Calm,-,N/A,Fog,Fog,0,2013-09-17 10:44:00
6:56 AM,32.0,30.9,96,30.48,0.2,Calm,Calm,-,N/A,Fog,Fog,0,2013-09-17 10:56:00
7:37 AM,32.0,30.2,93,30.44,0.5,Calm,Calm,-,N/A,Fog,Fog,0,2013-09-17 11:37:00
7:48 AM,32.0,30.2,93,30.44,0.2,Calm,Calm,-,N/A,Fog,Fog,0,2013-09-17 11:48:00
7:56 AM,32.0,30.9,96,30.50,0.2,Calm,Calm,-,N/A,Fog,Fog,0,2013-09-17 11:56:00
8:14 AM,33.8,33.8,100,30.45,0.8,Calm,Calm,-,N/A,,Mist,0,2013-09-17 12:14:00
8:23 AM,35.6,35.6,100,30.45,0.2,Calm,Calm,-,N/A,Fog,Fog,0,2013-09-17 12:23:00
8:53 AM,39.2,37.4,93,30.45,1.0,Calm,Calm,-,N/A,,Mist,0,2013-09-17 12:53:00
8:56 AM,39.0,37.9,96,30.50,3.0,Calm,Calm,-,N/A,,Mostly Cloudy,0,2013-09-17 12:56:00
9:13 AM,39.2,37.4,93,30.46,10.0,ESE,3.5,-,N/A,,Partly Cloudy,110,2013-09-17 13:13:00
9:56 AM,44.1,37.9,79,30.50,10.0,Variable,5.8,-,N/A,,Clear,0,2013-09-17 13:56:00
10:56 AM,50.0,37.9,63,30.49,10.0,ESE,6.9,-,N/A,,Clear,120,2013-09-17 14:56:00
11:56 AM,55.0,35.1,47,30.48,10.0,ESE,9.2,-,N/A,,Clear,120,2013-09-17 15:56:00
12:56 PM,57.9,35.1,42,30.46,10.0,ESE,9.2,-,N/A,,Clear,120,2013-09-17 16:56:00
1:56 PM,60.1,35.1,39,30.44,10.0,ESE,8.1,-,N/A,,Clear,110,2013-09-17 17:56:00
2:56 PM,61.0,36.0,39,30.42,10.0,ESE,8.1,-,N/A,,Clear,110,2013-09-17 18:56:00
3:56 PM,61.0,35.1,38,30.41,10.0,SE,6.9,-,N/A,,Clear,130,2013-09-17 19:56:00
4:56 PM,61.0,35.1,38,30.38,10.0,SSE,5.8,-,N/A,,Clear,150,2013-09-17 20:56:00
5:56 PM,60.1,37.0,42,30.39,10.0,East,6.9,-,N/A,,Clear,90,2013-09-17 21:56:00
6:56 PM,55.9,37.9,51,30.38,10.0,SE,4.6,-,N/A,,Clear,140,2013-09-17 22:56:00
7:56 PM,53.1,37.0,55,30.38,10.0,SSE,5.8,-,N/A,,Clear,150,2013-09-17 23:56:00
8:56 PM,52.0,36.0,54,30.38,10.0,SSE,4.6,-,N/A,,Clear,150,2013-09-18 00:56:00
9:56 PM,50.0,36.0,59,30.37,10.0,South,3.5,-,N/A,,Clear,180,2013-09-18 01:56:00
10:56 PM,50.0,36.0,59,30.36,10.0,Calm,Calm,-,N/A,,Clear,0,2013-09-18 02:56:00
11:56 PM,48.0,37.0,66,30.35,10.0,SSE,4.6,-,N/A,,Clear,160,2013-09-18 03:56:00